createdAt,value
2023-02-05T00:00:19.840Z,6.97
2023-02-05T00:03:23.159Z,7.57
2023-02-05T00:06:27.111Z,7.13
2023-02-05T00:09:30.443Z,7.17
2023-02-05T00:12:33.912Z,7.97
2023-02-05T00:15:40.963Z,7.07
2023-02-05T00:18:45.506Z,6.23
2023-02-05T00:21:49.950Z,8.38
2023-02-05T00:24:53.238Z,6.68
2023-02-05T00:27:56.470Z,8.25
2023-02-05T00:31:00.353Z,7.35
2023-02-05T00:34:03.813Z,7.95
2023-02-05T00:37:07.671Z,6.50
2023-02-05T00:40:11.676Z,6.97
2023-02-05T00:43:19.292Z,7.40
2023-02-05T00:46:22.616Z,5.35
2023-02-05T00:49:25.827Z,5.77
2023-02-05T00:52:29.178Z,5.40
2023-02-05T00:55:32.803Z,6.43
2023-02-05T00:58:36.308Z,6.80
2023-02-05T01:01:39.622Z,6.50
2023-02-05T01:04:43.062Z,8.90
2023-02-05T01:07:46.476Z,6.65
2023-02-05T01:10:51.242Z,7.80
2023-02-05T01:13:54.607Z,6.55
2023-02-05T01:16:57.852Z,5.75
2023-02-05T01:20:01.262Z,6.13
2023-02-05T01:23:04.821Z,6.80
2023-02-05T01:26:08.386Z,7.57
2023-02-05T01:29:12.035Z,6.68
2023-02-05T01:32:15.330Z,8.25
2023-02-05T01:35:18.678Z,8.70
2023-02-05T01:38:22.903Z,6.80
2023-02-05T01:41:26.243Z,7.33
2023-02-05T01:44:31.025Z,8.32
2023-02-05T01:47:34.255Z,8.95
2023-02-05T01:50:42.416Z,6.43
2023-02-05T01:53:47.982Z,7.15
2023-02-05T01:56:57.590Z,8.07
2023-02-05T02:00:00.949Z,5.50
2023-02-05T02:03:05.426Z,8.90
2023-02-05T02:06:08.838Z,6.32
2023-02-05T02:09:13.402Z,7.00
2023-02-05T02:12:22.946Z,5.40
2023-02-05T02:15:27.715Z,5.90
2023-02-05T02:18:33.080Z,6.93
2023-02-05T02:22:22.959Z,6.07
2023-02-05T02:25:38.108Z,5.60
2023-02-05T02:28:51.144Z,6.30
2023-02-05T02:32:20.034Z,6.35
2023-02-05T02:35:33.377Z,5.50
2023-02-05T02:39:08.098Z,3.88
2023-02-05T02:42:34.682Z,3.45
2023-02-05T02:45:46.390Z,4.30
2023-02-05T02:48:52.656Z,4.28
2023-02-05T02:51:58.099Z,3.92
2023-02-05T02:55:06.400Z,2.80
2023-02-05T02:58:16.922Z,3.53
2023-02-05T03:01:24.312Z,3.35
2023-02-05T03:04:37.729Z,2.67
2023-02-05T03:07:49.614Z,4.05
2023-02-05T03:11:14.346Z,3.03
2023-02-05T03:14:19.010Z,3.65
2023-02-05T03:17:24.375Z,3.80
2023-02-05T03:20:37.155Z,3.95
2023-02-05T03:23:40.610Z,2.55
2023-02-05T03:26:43.737Z,4.33
2023-02-05T03:29:52.471Z,2.25
2023-02-05T03:33:11.972Z,2.80
2023-02-05T03:36:36.968Z,3.45
2023-02-05T03:39:47.088Z,2.83
2023-02-05T03:43:13.200Z,3.70
2023-02-05T03:46:43.089Z,2.45
2023-02-05T03:50:10.840Z,2.53
2023-02-05T03:53:34.534Z,4.20
2023-02-05T03:56:55.448Z,4.30
2023-02-05T03:59:59.904Z,3.30
2023-02-05T04:03:05.342Z,2.17
2023-02-05T04:06:10.256Z,3.85
2023-02-05T04:09:13.610Z,3.05
2023-02-05T04:12:17.370Z,4.05
2023-02-05T04:15:21.383Z,2.75
2023-02-05T04:18:29.136Z,5.00
2023-02-05T04:21:32.811Z,2.00
2023-02-05T04:24:36.408Z,3.55
2023-02-05T04:27:40.686Z,3.42
2023-02-05T04:30:44.053Z,4.87
2023-02-05T04:33:47.869Z,2.53
2023-02-05T04:36:53.180Z,2.55
2023-02-05T04:39:56.666Z,3.92
2023-02-05T04:42:59.987Z,2.75
2023-02-05T04:46:10.838Z,3.78
2023-02-05T04:49:20.779Z,3.47
2023-02-05T04:52:26.923Z,5.30
2023-02-05T04:55:32.178Z,4.28
2023-02-05T04:58:36.082Z,3.25
2023-02-05T05:01:39.419Z,3.60
2023-02-05T05:04:43.307Z,4.95
2023-02-05T05:07:47.085Z,3.95
2023-02-05T05:10:50.484Z,5.38
2023-02-05T05:13:53.889Z,4.40
2023-02-05T05:16:57.247Z,5.38
2023-02-05T05:20:00.742Z,4.13
2023-02-05T05:23:04.002Z,3.10
2023-02-05T05:26:08.596Z,4.85
2023-02-05T05:29:12.602Z,3.33
2023-02-05T05:32:15.884Z,3.40
2023-02-05T05:35:19.132Z,4.05
2023-02-05T05:38:22.444Z,4.25
2023-02-05T05:42:04.609Z,4.40
2023-02-05T05:45:08.182Z,3.78
2023-02-05T05:48:11.439Z,3.92
2023-02-05T05:51:14.676Z,5.63
2023-02-05T05:54:17.971Z,4.07
2023-02-05T05:57:21.254Z,3.60
2023-02-05T06:00:24.616Z,4.68
2023-02-05T06:03:28.037Z,4.50
2023-02-05T06:06:31.198Z,4.50
2023-02-05T06:09:34.511Z,3.65
2023-02-05T06:12:37.715Z,4.97
2023-02-05T06:15:40.993Z,4.43
2023-02-05T06:18:44.280Z,4.88
2023-02-05T06:21:47.495Z,3.53
2023-02-05T06:24:50.811Z,3.00
2023-02-05T06:27:54.040Z,3.38
2023-02-05T06:30:57.482Z,3.72
2023-02-05T06:34:01.427Z,4.00
2023-02-05T06:37:04.659Z,3.42
2023-02-05T06:40:08.494Z,3.83
2023-02-05T06:43:16.693Z,3.78
2023-02-05T06:46:19.978Z,3.92
2023-02-05T06:49:23.314Z,3.25
2023-02-05T06:52:26.557Z,3.05
2023-02-05T06:55:29.825Z,4.80
2023-02-05T06:58:33.166Z,4.28
2023-02-05T07:01:36.702Z,4.03
2023-02-05T07:04:39.965Z,3.47
2023-02-05T07:07:43.157Z,4.15
2023-02-05T07:10:46.494Z,3.45
2023-02-05T07:13:50.499Z,6.25
2023-02-05T07:16:53.662Z,5.22
2023-02-05T07:19:56.974Z,3.50
2023-02-05T07:23:00.534Z,3.90
2023-02-05T07:26:12.102Z,2.87
2023-02-05T07:29:15.578Z,8.55
2023-02-05T07:32:18.804Z,5.30
2023-02-05T07:35:22.145Z,4.07
2023-02-05T07:38:25.740Z,4.15
2023-02-05T07:41:28.976Z,5.63
2023-02-05T07:44:32.233Z,4.80
2023-02-05T07:47:35.408Z,4.00
2023-02-05T07:50:42.804Z,3.45
2023-02-05T07:53:49.125Z,4.68
2023-02-05T07:56:52.460Z,3.73
2023-02-05T07:59:55.681Z,4.07
2023-02-05T08:02:59.109Z,3.88
2023-02-05T08:06:07.033Z,4.37
2023-02-05T08:09:11.323Z,3.92
2023-02-05T08:12:14.536Z,5.78
2023-02-05T08:15:17.898Z,4.20
2023-02-05T08:18:21.303Z,4.13
2023-02-05T08:21:24.886Z,3.55
2023-02-05T08:24:28.094Z,4.78
2023-02-05T08:27:36.980Z,5.60
2023-02-05T08:30:40.558Z,5.97
2023-02-05T08:33:44.156Z,4.18
2023-02-05T08:36:47.376Z,5.67
2023-02-05T08:39:50.787Z,3.60
2023-02-05T08:42:57.166Z,4.07
2023-02-05T08:46:00.649Z,3.45
2023-02-05T08:49:04.242Z,5.55
2023-02-05T08:52:07.685Z,5.35
2023-02-05T08:55:11.317Z,5.10
2023-02-05T08:58:14.623Z,4.80
2023-02-05T09:01:18.532Z,4.05
2023-02-05T09:04:23.597Z,4.30
2023-02-05T09:07:26.821Z,5.97
2023-02-05T09:10:30.134Z,5.05
2023-02-05T09:13:34.162Z,4.32
2023-02-05T09:16:37.426Z,4.72
2023-02-05T09:19:41.702Z,3.90
2023-02-05T09:22:45.105Z,5.05
2023-02-05T09:26:09.139Z,4.05
2023-02-05T09:29:12.834Z,5.07
2023-02-05T09:32:16.034Z,3.53
2023-02-05T09:35:19.242Z,4.68
2023-02-05T09:38:22.478Z,4.37
2023-02-05T09:41:44.263Z,4.18
2023-02-05T09:45:00.702Z,3.58
2023-02-05T09:48:49.895Z,4.78
2023-02-05T09:52:01.031Z,3.83
2023-02-05T09:55:27.502Z,3.67
2023-02-05T09:58:35.069Z,4.10
2023-02-05T10:01:53.755Z,4.37
2023-02-05T10:04:57.070Z,4.65
2023-02-05T10:08:06.271Z,6.40
2023-02-05T10:11:32.280Z,4.57
2023-02-05T10:14:54.362Z,3.55
2023-02-05T10:18:09.371Z,3.65
2023-02-05T10:21:34.201Z,3.75
2023-02-05T10:24:48.342Z,5.18
2023-02-05T10:27:57.514Z,3.97
2023-02-05T10:31:21.841Z,2.35
2023-02-05T10:34:43.095Z,5.93
2023-02-05T10:37:51.723Z,4.63
2023-02-05T10:41:23.627Z,4.00
2023-02-05T10:44:32.575Z,4.60
2023-02-05T10:48:22.597Z,3.22
2023-02-05T10:51:48.426Z,4.28
2023-02-05T10:54:51.990Z,6.35
2023-02-05T10:57:55.270Z,5.75
2023-02-05T11:00:59.952Z,4.30
2023-02-05T11:04:07.500Z,4.97
2023-02-05T11:07:14.598Z,3.60
2023-02-05T11:10:23.994Z,4.47
2023-02-05T11:13:28.452Z,4.20
2023-02-05T11:16:44.220Z,4.33
2023-02-05T11:20:00.814Z,4.65
2023-02-05T11:23:14.811Z,4.30
2023-02-05T11:26:21.042Z,4.85
2023-02-05T11:29:25.333Z,4.60
2023-02-05T11:32:37.636Z,5.72
2023-02-05T11:35:40.969Z,4.70
2023-02-05T11:38:56.778Z,4.93
2023-02-05T11:42:17.592Z,3.95
2023-02-05T11:45:25.408Z,5.32
2023-02-05T11:48:33.727Z,3.70
2023-02-05T11:51:42.656Z,4.00
2023-02-05T11:54:47.797Z,4.60
2023-02-05T11:58:02.866Z,3.72
2023-02-05T12:01:23.982Z,5.40
2023-02-05T12:04:30.702Z,5.88
2023-02-05T12:07:50.542Z,5.88
2023-02-05T12:11:15.694Z,4.10
2023-02-05T12:14:31.434Z,3.78
2023-02-05T12:17:44.350Z,4.15
2023-02-05T12:21:29.429Z,4.37
2023-02-05T12:25:14.746Z,5.82
2023-02-05T12:28:27.588Z,4.88
2023-02-05T12:31:58.434Z,5.03
2023-02-05T12:35:10.224Z,5.28
2023-02-05T12:38:33.586Z,5.32
2023-02-05T12:41:49.927Z,6.85
2023-02-05T12:45:19.812Z,6.87
2023-02-05T12:48:54.058Z,7.13
2023-02-05T12:52:28.339Z,4.43
2023-02-05T12:56:11.614Z,4.97
2023-02-05T12:59:39.037Z,4.30
2023-02-05T13:03:24.143Z,5.45
2023-02-05T13:06:36.938Z,5.25
2023-02-05T13:09:51.038Z,4.90
2023-02-05T13:13:00.435Z,4.80
2023-02-05T13:16:09.385Z,4.95
2023-02-05T13:19:21.732Z,3.77
2023-02-05T13:22:56.919Z,6.75
2023-02-05T13:26:08.939Z,6.20
2023-02-05T13:29:16.147Z,4.60
2023-02-05T13:32:23.535Z,4.25
2023-02-05T13:35:31.468Z,5.53
2023-02-05T13:38:53.523Z,5.88
2023-02-05T13:42:18.096Z,4.20
2023-02-05T13:45:45.517Z,3.25
2023-02-05T13:49:10.946Z,4.13
2023-02-05T13:52:38.142Z,6.80
2023-02-05T13:56:04.396Z,6.63
2023-02-05T13:59:21.834Z,4.57
2023-02-05T14:02:36.086Z,5.90
2023-02-05T14:05:42.920Z,5.15
2023-02-05T14:08:46.256Z,5.30
2023-02-05T14:11:54.615Z,4.72
2023-02-05T14:15:19.799Z,5.07
2023-02-05T14:19:00.160Z,5.35
2023-02-05T14:22:07.457Z,5.63
2023-02-05T14:25:35.905Z,4.73
2023-02-05T14:28:51.478Z,4.97
2023-02-05T14:31:54.730Z,5.20
2023-02-05T14:35:38.194Z,6.23
2023-02-05T14:39:01.473Z,5.57
2023-02-05T14:42:07.776Z,4.40
2023-02-05T14:45:19.139Z,5.28
2023-02-05T14:48:32.027Z,5.25
2023-02-05T14:51:40.591Z,5.80
2023-02-05T14:54:51.903Z,5.70
2023-02-05T14:58:04.418Z,7.33
2023-02-05T15:01:26.636Z,5.22
2023-02-05T15:04:45.284Z,5.63
2023-02-05T15:07:51.186Z,5.80
2023-02-05T15:11:34.625Z,6.07
2023-02-05T15:14:52.382Z,5.32
2023-02-05T15:18:17.714Z,6.78
2023-02-05T15:21:32.506Z,7.95
2023-02-05T15:24:36.995Z,6.85
2023-02-05T15:27:47.445Z,6.10
2023-02-05T15:31:24.055Z,6.13
2023-02-05T15:34:53.438Z,6.10
2023-02-05T15:38:24.988Z,6.85
2023-02-05T15:41:31.001Z,6.30
2023-02-05T15:44:36.314Z,7.60
2023-02-05T15:47:41.264Z,6.47
2023-02-05T15:50:54.949Z,4.88
2023-02-05T15:54:01.688Z,8.13
2023-02-05T15:57:07.171Z,7.78
2023-02-05T16:00:18.040Z,7.53
2023-02-05T16:03:33.412Z,6.53
2023-02-05T16:06:37.243Z,5.70
2023-02-05T16:09:48.480Z,6.55
2023-02-05T16:13:06.281Z,6.57
2023-02-05T16:16:19.176Z,6.82
2023-02-05T16:19:29.315Z,6.82
2023-02-05T16:22:52.773Z,7.63
2023-02-05T16:26:09.676Z,6.97
2023-02-05T16:29:38.998Z,7.60
2023-02-05T16:32:47.075Z,6.60
2023-02-05T16:35:50.728Z,6.97
2023-02-05T16:38:57.215Z,6.22
2023-02-05T16:42:09.418Z,6.55
2023-02-05T16:45:25.440Z,10.27
2023-02-05T16:48:30.613Z,7.38
2023-02-05T16:51:52.961Z,8.88
2023-02-05T16:54:56.669Z,8.52
2023-02-05T16:58:05.970Z,6.88
2023-02-05T17:01:09.869Z,8.38
2023-02-05T17:04:31.647Z,6.80
2023-02-05T17:07:35.589Z,8.10
2023-02-05T17:11:02.535Z,8.20
2023-02-05T17:14:31.460Z,7.85
2023-02-05T17:17:48.868Z,8.07
2023-02-05T17:21:12.510Z,7.57
2023-02-05T17:24:16.103Z,7.57
2023-02-05T17:27:30.327Z,6.88
2023-02-05T17:30:35.412Z,6.70
2023-02-05T17:33:39.036Z,7.43
2023-02-05T17:36:43.018Z,8.60
2023-02-05T17:39:46.698Z,7.30
2023-02-05T17:42:50.126Z,7.05
2023-02-05T17:45:53.672Z,10.77
2023-02-05T17:48:57.035Z,9.90
2023-02-05T17:52:01.934Z,7.57
2023-02-05T17:55:06.128Z,7.30
2023-02-05T17:58:09.639Z,8.48
2023-02-05T18:01:13.378Z,6.22
2023-02-05T18:04:18.746Z,7.30
2023-02-05T18:07:44.301Z,7.22
2023-02-05T18:10:48.648Z,6.27
2023-02-05T18:13:52.202Z,6.32
2023-02-05T18:16:55.748Z,7.55
2023-02-05T18:19:59.055Z,7.63
2023-02-05T18:23:03.833Z,7.07
2023-02-05T18:26:08.397Z,6.63
2023-02-05T18:29:12.116Z,8.15
2023-02-05T18:32:15.687Z,7.38
2023-02-05T18:35:27.438Z,7.88
2023-02-05T18:38:32.378Z,8.75
2023-02-05T18:41:36.965Z,7.77
2023-02-05T18:44:43.362Z,8.30
2023-02-05T18:47:47.062Z,9.02
2023-02-05T18:50:50.538Z,7.67
2023-02-05T18:53:54.436Z,8.95
2023-02-05T18:56:58.401Z,8.95
2023-02-05T19:00:02.036Z,10.27
2023-02-05T19:03:05.757Z,8.77
2023-02-05T19:06:13.069Z,8.10
2023-02-05T19:09:16.706Z,10.32
2023-02-05T19:12:20.151Z,8.27
2023-02-05T19:15:23.568Z,9.40
2023-02-05T19:18:26.851Z,7.45
2023-02-05T19:21:31.541Z,10.00
2023-02-05T19:24:36.139Z,9.07
2023-02-05T19:27:39.919Z,9.95
2023-02-05T19:30:43.630Z,8.55
2023-02-05T19:33:47.164Z,9.35
2023-02-05T19:36:50.831Z,6.78
2023-02-05T19:39:54.528Z,8.63
2023-02-05T19:42:58.795Z,8.83
2023-02-05T19:46:06.862Z,9.70
2023-02-05T19:49:21.409Z,12.15
2023-02-05T19:52:24.602Z,8.30
2023-02-05T19:55:28.106Z,9.35
2023-02-05T19:58:31.677Z,7.07
2023-02-05T20:01:38.243Z,8.27
2023-02-05T20:04:42.349Z,8.43
2023-02-05T20:07:52.773Z,11.68
2023-02-05T20:11:01.558Z,10.18
2023-02-05T20:14:05.185Z,9.53
2023-02-05T20:17:09.282Z,11.15
2023-02-05T20:20:25.001Z,13.77
2023-02-05T20:23:37.478Z,10.47
2023-02-05T20:26:41.152Z,10.52
2023-02-05T20:30:03.244Z,10.45
2023-02-05T20:33:06.788Z,8.57
2023-02-05T20:36:12.665Z,9.18
2023-02-05T20:39:17.726Z,8.18
2023-02-05T20:42:21.233Z,10.18
2023-02-05T20:45:24.848Z,11.00
2023-02-05T20:48:29.861Z,9.80
2023-02-05T20:51:33.579Z,8.52
2023-02-05T20:54:37.374Z,10.90
2023-02-05T20:57:41.487Z,10.35
2023-02-05T21:00:45.226Z,9.57
2023-02-05T21:03:51.215Z,9.00
2023-02-05T21:06:54.646Z,12.52
2023-02-05T21:10:01.878Z,9.50
2023-02-05T21:13:05.696Z,7.93
2023-02-05T21:16:09.558Z,9.47
2023-02-05T21:19:12.924Z,9.25
2023-02-05T21:22:16.266Z,11.07
2023-02-05T21:25:19.715Z,11.30
2023-02-05T21:28:23.558Z,7.88
2023-02-05T21:31:34.974Z,10.70
2023-02-05T21:34:38.226Z,10.23
2023-02-05T21:37:41.786Z,8.75
2023-02-05T21:40:45.864Z,10.80
2023-02-05T21:43:50.767Z,9.63
2023-02-05T21:46:54.699Z,9.30
2023-02-05T21:49:58.062Z,10.50
2023-02-05T21:53:01.356Z,9.35
2023-02-05T21:56:06.467Z,8.90
2023-02-05T21:59:13.327Z,10.18
2023-02-05T22:02:16.526Z,11.15
2023-02-05T22:05:19.740Z,10.13
2023-02-05T22:08:22.874Z,10.48
2023-02-05T22:11:27.853Z,10.93
2023-02-05T22:14:31.410Z,9.30
2023-02-05T22:17:34.621Z,9.67
2023-02-05T22:20:37.848Z,10.90
2023-02-05T22:23:43.047Z,6.55
2023-02-05T22:26:47.089Z,9.33
2023-02-05T22:29:50.579Z,11.98
2023-02-05T22:32:53.828Z,10.80
2023-02-05T22:35:57.977Z,9.50
2023-02-05T22:39:01.518Z,10.45
2023-02-05T22:42:04.995Z,9.90
2023-02-05T22:45:08.342Z,10.70
2023-02-05T22:48:11.809Z,9.33
2023-02-05T22:51:20.421Z,8.73
2023-02-05T22:54:23.611Z,11.07
2023-02-05T22:57:26.821Z,10.60
2023-02-05T23:00:30.937Z,10.98
2023-02-05T23:03:34.358Z,10.77
2023-02-05T23:06:40.753Z,9.32
2023-02-05T23:09:44.042Z,10.45
2023-02-05T23:12:48.366Z,12.55
2023-02-05T23:15:51.526Z,9.88
2023-02-05T23:18:58.721Z,8.77
2023-02-05T23:22:02.483Z,10.80
2023-02-05T23:25:06.265Z,12.65
2023-02-05T23:28:09.601Z,10.17
2023-02-05T23:31:13.271Z,10.98
2023-02-05T23:34:16.753Z,11.95
2023-02-05T23:37:19.991Z,12.02
2023-02-05T23:40:23.575Z,11.23
2023-02-05T23:43:26.927Z,10.27
2023-02-05T23:46:30.393Z,10.85
2023-02-05T23:49:33.558Z,10.90
2023-02-05T23:52:36.722Z,11.63
2023-02-05T23:55:44.093Z,11.32
2023-02-05T23:58:47.730Z,9.17
